Time;durP1;ratioP1;P1;durP2;ratioP2;P2;SDS_P1;SDS_P2;PMS_P1;PMS_P2;Temp;Humidity;BMP_temperature;BMP_pressure;BME280_temperature;BME280_humidity;BME280_pressure;Samples;Min_cycle;Max_cycle;Signal;HPM_P1;HPM_P2
2022/08/12 00:44:09;;;;;;;7.40;3.95;;;23.10;71.50;;;;;;5073441;28;20074;-61
2022/08/12 00:46:49;;;;;;;12.82;4.35;;;23.10;71.90;;;;;;5072108;28;20036;-60
2022/08/12 00:49:16;;;;;;;9.80;3.63;;;23.10;72.00;;;;;;5073426;28;20075;-60
2022/08/12 00:54:27;;;;;;;8.02;4.30;;;23.00;72.50;;;;;;5073872;28;20040;-60
2022/08/12 00:56:54;;;;;;;9.60;4.43;;;23.00;72.90;;;;;;5073183;28;20020;-60
2022/08/12 00:59:20;;;;;;;8.10;4.25;;;23.00;73.20;;;;;;5072995;28;20513;-60
2022/08/12 01:01:47;;;;;;;9.32;4.22;;;23.00;73.40;;;;;;5073027;28;20037;-60
2022/08/12 01:12:35;;;;;;;5.85;4.25;;;22.90;74.10;;;;;;5072994;28;20062;-60
2022/08/12 01:15:02;;;;;;;13.20;4.78;;;22.80;74.60;;;;;;5072576;28;20035;-60
2022/08/12 01:17:29;;;;;;;8.43;4.55;;;22.80;74.60;;;;;;5071105;28;20048;-60
2022/08/12 01:19:58;;;;;;;9.85;4.38;;;22.70;74.80;;;;;;5072715;28;20435;-60
2022/08/12 01:22:33;;;;;;;11.10;4.57;;;22.70;74.80;;;;;;5072623;28;20490;-61
2022/08/12 01:25:06;;;;;;;5.82;4.18;;;22.70;74.90;;;;;;5072820;28;20029;-60
2022/08/12 01:27:33;;;;;;;7.90;4.43;;;22.60;76.60;;;;;;5072335;28;20115;-60
2022/08/12 01:30:02;;;;;;;9.98;4.68;;;22.60;76.00;;;;;;5072510;28;20078;-59
2022/08/12 01:32:32;;;;;;;14.30;5.20;;;22.50;76.80;;;;;;5072428;28;20446;-59
2022/08/12 01:35:07;;;;;;;5.35;4.15;;;22.40;78.30;;;;;;5072257;28;20024;-59
2022/08/12 01:37:44;;;;;;;7.75;4.45;;;22.30;78.80;;;;;;5072433;28;20013;-59
2022/08/12 01:40:12;;;;;;;9.02;4.53;;;22.20;78.70;;;;;;5072132;28;20028;-59
2022/08/12 01:42:47;;;;;;;9.90;4.53;;;22.20;78.20;;;;;;5072036;28;20046;-59
2022/08/12 01:45:14;;;;;;;12.00;5.13;;;22.20;78.40;;;;;;5072134;28;20036;-59
2022/08/12 01:48:11;;;;;;;6.78;4.57;;;22.30;78.50;;;;;;5071775;28;20097;-59
2022/08/12 01:50:53;;;;;;;10.45;4.95;;;22.30;78.60;;;;;;5071893;28;20027;-59
2022/08/12 01:53:24;;;;;;;12.02;4.88;;;22.30;78.50;;;;;;5071970;28;20074;-59
2022/08/12 01:55:51;;;;;;;9.43;4.55;;;22.30;79.90;;;;;;5071788;28;20040;-59
2022/08/12 02:01:26;;;;;;;10.95;4.85;;;22.20;79.80;;;;;;5072031;28;20532;-59
2022/08/12 02:12:56;;;;;;;10.48;5.07;;;22.10;81.10;;;;;;5071472;28;20094;-60
2022/08/12 02:15:55;;;;;;;9.60;5.35;;;22.00;82.20;;;;;;5070459;28;20028;-59
2022/08/12 02:18:25;;;;;;;7.70;4.47;;;22.00;82.50;;;;;;5071626;28;20045;-60
2022/08/12 02:21:12;;;;;;;8.02;4.72;;;21.90;82.60;;;;;;5071466;28;20032;-60
2022/08/12 02:23:39;;;;;;;7.40;5.50;;;21.90;83.40;;;;;;5069994;28;20041;-59
2022/08/12 02:26:08;;;;;;;15.25;5.20;;;21.90;83.30;;;;;;5071281;28;20029;-60
2022/08/12 02:28:36;;;;;;;9.65;4.78;;;21.80;83.60;;;;;;5071564;28;20035;-59
2022/08/12 02:31:05;;;;;;;10.45;5.10;;;21.80;84.10;;;;;;5070992;28;20029;-59
2022/08/12 02:33:36;;;;;;;7.68;5.10;;;21.70;84.60;;;;;;5071231;28;20059;-59
2022/08/12 02:36:04;;;;;;;15.85;5.68;;;21.70;85.10;;;;;;5070947;28;20072;-59
2022/08/12 02:38:30;;;;;;;9.52;5.00;;;21.70;85.30;;;;;;5071237;28;20059;-59
2022/08/12 02:41:00;;;;;;;11.20;5.10;;;21.70;85.80;;;;;;5071290;28;20056;-60
2022/08/12 02:43:36;;;;;;;9.07;4.90;;;21.70;86.50;;;;;;5071161;28;20025;-60
2022/08/12 02:46:08;;;;;;;8.90;5.15;;;21.70;86.70;;;;;;5071207;28;20031;-60
2022/08/12 02:48:59;;;;;;;14.07;5.80;;;21.60;87.60;;;;;;5071242;28;20021;-60
2022/08/12 02:51:30;;;;;;;14.02;5.60;;;21.50;88.60;;;;;;5070564;28;20020;-60
2022/08/12 02:53:58;;;;;;;7.20;5.07;;;21.40;89.40;;;;;;5070978;28;20032;-60
2022/08/12 02:56:26;;;;;;;8.35;4.93;;;21.50;89.90;;;;;;5070763;28;20024;-60
2022/08/12 02:58:52;;;;;;;7.78;5.13;;;21.50;90.00;;;;;;5070802;28;20508;-59
2022/08/12 03:01:23;;;;;;;9.30;5.38;;;21.50;90.00;;;;;;5071067;28;20028;-60
2022/08/12 03:03:54;;;;;;;10.13;5.60;;;21.50;90.30;;;;;;5070799;28;20347;-60
2022/08/12 03:06:22;;;;;;;11.07;5.43;;;21.40;90.60;;;;;;5070592;28;20021;-59
2022/08/12 03:08:52;;;;;;;11.52;5.63;;;21.30;91.00;;;;;;5071046;28;20056;-59
2022/08/12 03:11:24;;;;;;;9.02;5.22;;;21.30;91.20;;;;;;5070883;28;20116;-60
2022/08/12 03:13:51;;;;;;;;;;;21.30;91.40;;;;;;5071406;28;20434;-59
2022/08/12 03:16:19;;;;;;;10.85;5.72;;;21.30;91.50;;;;;;5070905;28;19999;-60
2022/08/12 03:18:45;;;;;;;9.70;5.60;;;21.30;91.80;;;;;;5071181;28;20033;-60
2022/08/12 03:21:14;;;;;;;8.52;5.65;;;21.20;92.10;;;;;;5070816;28;20095;-60
2022/08/12 03:23:41;;;;;;;12.82;5.55;;;21.20;92.50;;;;;;5071023;28;20546;-60
2022/08/12 03:26:07;;;;;;;14.18;5.50;;;21.10;92.80;;;;;;5069502;28;20024;-60
2022/08/12 03:28:49;;;;;;;10.65;5.80;;;21.10;92.90;;;;;;5071028;28;20020;-60
2022/08/12 03:31:35;;;;;;;11.23;5.95;;;21.10;93.20;;;;;;5069464;28;20053;-60
2022/08/12 03:34:06;;;;;;;11.48;6.15;;;21.10;93.50;;;;;;5070351;28;20046;-60
2022/08/12 03:36:35;;;;;;;15.13;6.25;;;21.00;93.90;;;;;;5070768;28;20244;-60
2022/08/12 03:42:00;;;;;;;13.10;6.20;;;21.00;94.40;;;;;;5070518;28;20422;-59
2022/08/12 04:01:57;;;;;;;13.52;6.88;;;20.90;96.40;;;;;;5070867;28;20549;-60
2022/08/12 04:04:33;;;;;;;15.15;6.10;;;20.80;96.30;;;;;;5074052;28;20086;-59
2022/08/12 04:07:08;;;;;;;8.15;5.95;;;20.70;96.70;;;;;;5072738;28;20056;-61
2022/08/12 04:09:39;;;;;;;8.02;5.82;;;20.70;97.00;;;;;;5074270;28;20107;-60
2022/08/12 04:14:51;;;;;;;10.80;6.03;;;20.70;97.50;;;;;;5073729;28;20067;-58
2022/08/12 04:17:18;;;;;;;12.63;6.53;;;20.60;98.00;;;;;;5073864;28;20036;-59
2022/08/12 04:19:46;;;;;;;16.13;6.75;;;20.60;98.20;;;;;;5073944;28;20056;-59
2022/08/12 04:22:13;;;;;;;10.65;6.53;;;20.60;98.40;;;;;;5074343;28;20405;-59
2022/08/12 04:24:40;;;;;;;11.13;6.57;;;20.50;98.60;;;;;;5073973;28;20036;-59
2022/08/12 04:27:09;;;;;;;11.75;6.50;;;20.50;99.00;;;;;;5073893;28;20085;-61
2022/08/12 04:29:36;;;;;;;10.73;7.00;;;20.50;99.10;;;;;;5074314;28;20039;-59
2022/08/12 04:32:02;;;;;;;12.55;6.70;;;20.40;99.40;;;;;;5073585;28;20507;-60
2022/08/12 04:34:27;;;;;;;15.07;6.90;;;20.40;99.70;;;;;;5073890;28;20028;-60
2022/08/12 04:36:53;;;;;;;14.70;6.57;;;20.40;99.90;;;;;;5073583;28;20123;-60
2022/08/12 04:39:20;;;;;;;10.82;6.05;;;20.40;99.90;;;;;;5072300;28;20032;-60
2022/08/12 04:41:48;;;;;;;13.18;7.38;;;20.40;99.90;;;;;;5072636;28;20032;-60
2022/08/12 04:44:14;;;;;;;11.18;7.10;;;20.30;99.90;;;;;;5073653;28;20448;-60
2022/08/12 04:46:40;;;;;;;10.93;6.93;;;20.30;99.90;;;;;;5073461;28;20108;-59
2022/08/12 04:49:05;;;;;;;16.15;6.80;;;20.40;99.90;;;;;;5073578;28;20701;-59
2022/08/12 04:51:32;;;;;;;14.10;6.97;;;20.50;99.90;;;;;;5073679;28;20028;-60
2022/08/12 04:54:00;;;;;;;13.65;7.13;;;20.40;99.90;;;;;;5073277;28;20024;-60
2022/08/12 04:56:26;;;;;;;10.18;6.63;;;20.30;99.90;;;;;;5073503;28;20031;-60
2022/08/12 04:58:52;;;;;;;16.75;6.97;;;20.30;99.90;;;;;;5073480;28;20489;-59
2022/08/12 05:01:19;;;;;;;10.75;7.57;;;20.20;99.90;;;;;;5073190;28;20036;-60
2022/08/12 05:03:44;;;;;;;12.77;6.72;;;20.30;99.90;;;;;;5073061;28;20039;-60
2022/08/12 05:06:10;;;;;;;11.95;6.97;;;20.30;99.90;;;;;;5072945;28;20029;-59
2022/08/12 05:08:35;;;;;;;14.90;7.00;;;20.40;99.90;;;;;;5073333;28;20125;-59
2022/08/12 05:11:01;;;;;;;11.77;6.53;;;20.40;99.90;;;;;;5072862;28;20032;-59
2022/08/12 05:13:32;;;;;;;14.98;7.43;;;20.40;99.90;;;;;;5073600;28;20098;-59
2022/08/12 05:15:58;;;;;;;15.15;7.25;;;20.30;99.90;;;;;;5072130;28;20051;-60
2022/08/12 05:18:23;;;;;;;13.20;7.20;;;20.40;99.90;;;;;;5073224;28;20113;-59
2022/08/12 05:20:49;;;;;;;9.50;6.50;;;20.40;99.90;;;;;;5073159;28;20078;-60
2022/08/12 05:23:18;;;;;;;15.75;7.60;;;20.40;99.90;;;;;;5071626;28;20043;-59
2022/08/12 05:25:48;;;;;;;14.18;7.38;;;20.40;99.90;;;;;;5072419;28;20043;-59
2022/08/12 05:28:15;;;;;;;9.18;6.93;;;20.50;99.90;;;;;;5072837;28;20029;-58
2022/08/12 05:30:42;;;;;;;8.85;6.65;;;20.70;99.90;;;;;;5072564;28;20032;-59
2022/08/12 05:33:09;;;;;;;18.50;7.72;;;20.70;99.90;;;;;;5072338;28;20094;-59
2022/08/12 05:35:40;;;;;;;13.68;7.57;;;20.60;99.90;;;;;;5072805;28;20497;-59
2022/08/12 05:40:53;;;;;;;14.02;7.05;;;20.70;99.90;;;;;;5072531;28;20035;-59
2022/08/12 05:43:19;;;;;;;14.13;6.95;;;20.80;99.90;;;;;;5072137;28;20036;-58
2022/08/12 05:45:45;;;;;;;13.52;7.13;;;20.80;99.90;;;;;;5072252;28;20112;-58
2022/08/12 05:48:12;;;;;;;13.52;7.15;;;21.00;99.90;;;;;;5072654;28;20028;-59
2022/08/12 05:50:38;;;;;;;12.23;7.72;;;21.00;99.90;;;;;;5071918;28;20025;-58
2022/08/12 05:53:05;;;;;;;12.13;7.40;;;21.10;99.90;;;;;;5072133;28;20029;-59
2022/08/12 05:55:32;;;;;;;12.40;7.30;;;21.10;99.90;;;;;;5072156;28;20025;-59
2022/08/12 05:57:58;;;;;;;12.88;7.07;;;21.10;99.90;;;;;;5072097;28;20029;-59
2022/08/12 06:00:25;;;;;;;15.98;7.10;;;21.20;99.90;;;;;;5071876;28;20044;-59
2022/08/12 06:02:59;;;;;;;13.00;6.82;;;21.30;99.90;;;;;;5071835;28;20032;-59
2022/08/12 06:05:34;;;;;;;13.13;7.28;;;21.30;99.90;;;;;;5071604;28;20098;-59
2022/08/12 06:08:01;;;;;;;13.68;7.35;;;21.40;99.90;;;;;;5070873;28;20032;-59
2022/08/12 06:10:27;;;;;;;19.60;7.57;;;21.40;99.90;;;;;;5070177;28;20037;-59
2022/08/12 06:12:55;;;;;;;13.30;6.47;;;21.50;99.90;;;;;;5071658;28;20162;-59
2022/08/12 06:15:21;;;;;;;18.20;7.43;;;21.70;99.90;;;;;;5071776;28;20526;-59
2022/08/12 06:17:47;;;;;;;14.02;7.90;;;21.90;99.90;;;;;;5071946;28;20025;-59
2022/08/12 06:20:14;;;;;;;11.38;7.53;;;22.00;99.90;;;;;;5071633;28;20043;-59
2022/08/12 06:22:40;;;;;;;25.55;8.73;;;22.10;99.80;;;;;;5071479;28;20025;-59
2022/08/12 06:25:06;;;;;;;12.02;7.75;;;22.20;99.20;;;;;;5071577;28;20551;-59
2022/08/12 06:27:33;;;;;;;15.23;7.05;;;22.30;99.00;;;;;;5071167;28;20044;-59
2022/08/12 06:30:01;;;;;;;15.18;7.32;;;22.30;99.00;;;;;;5070058;28;20113;-59
2022/08/12 06:32:27;;;;;;;12.52;7.40;;;22.40;99.00;;;;;;5071506;28;20036;-60
2022/08/12 06:34:55;;;;;;;15.88;7.10;;;22.60;98.70;;;;;;5071192;28;20044;-59
2022/08/12 06:37:20;;;;;;;23.48;7.78;;;22.90;97.60;;;;;;5071073;28;20505;-59
2022/08/12 06:39:46;;;;;;;15.45;6.82;;;23.10;97.10;;;;;;5071354;28;20063;-59
2022/08/12 06:44:56;;;;;;;15.77;7.03;;;23.20;96.40;;;;;;5071403;28;20457;-59
2022/08/12 06:47:21;;;;;;;11.90;7.38;;;23.30;96.00;;;;;;5070940;28;20025;-59
2022/08/12 06:49:48;;;;;;;16.13;6.85;;;23.30;96.10;;;;;;5071466;28;20056;-61
2022/08/12 06:52:14;;;;;;;13.20;7.10;;;23.40;96.00;;;;;;5071185;28;20044;-59
2022/08/12 06:54:43;;;;;;;17.27;6.38;;;23.50;95.80;;;;;;5071317;28;20452;-58
2022/08/12 06:57:08;;;;;;;11.05;6.97;;;23.70;95.20;;;;;;5070756;28;20035;-58
2022/08/12 06:59:34;;;;;;;18.13;6.78;;;23.90;94.90;;;;;;5070825;28;20041;-58
2022/08/12 07:02:00;;;;;;;15.73;6.75;;;24.10;94.70;;;;;;5071140;28;20021;-58
2022/08/12 07:04:26;;;;;;;11.10;6.80;;;24.00;94.60;;;;;;5070837;28;20043;-58
2022/08/12 07:06:54;;;;;;;22.23;7.18;;;24.10;94.70;;;;;;5071157;28;20092;-59
2022/08/12 07:09:20;;;;;;;14.38;6.18;;;24.00;94.80;;;;;;5071136;28;20071;-59
2022/08/12 07:11:45;;;;;;;12.15;5.95;;;24.10;94.50;;;;;;5078117;28;20626;-59
2022/08/12 07:14:11;;;;;;;15.75;6.70;;;24.50;93.90;;;;;;5081870;28;20021;-59
2022/08/12 07:16:52;;;;;;;20.90;6.20;;;25.90;90.90;;;;;;5078016;28;20020;-59
2022/08/12 07:19:21;;;;;;;10.80;5.35;;;27.40;82.50;;;;;;5071999;28;20025;-59
2022/08/12 07:21:47;;;;;;;13.98;5.28;;;28.80;74.80;;;;;;5071140;28;20036;-59
2022/08/12 07:24:13;;;;;;;10.80;4.70;;;30.20;70.10;;;;;;5071168;28;20381;-62
2022/08/12 07:26:40;;;;;;;15.25;5.07;;;31.10;66.30;;;;;;5071111;28;20020;-60
2022/08/12 07:29:08;;;;;;;12.40;4.75;;;32.20;62.50;;;;;;5071930;28;20032;-60
2022/08/12 07:31:37;;;;;;;12.50;5.68;;;33.10;59.60;;;;;;5071690;28;20047;-60
2022/08/12 07:34:04;;;;;;;6.25;4.78;;;33.90;57.90;;;;;;5070614;28;20040;-60
2022/08/12 07:36:32;;;;;;;12.40;4.40;;;34.30;56.80;;;;;;5070713;28;20017;-62
2022/08/12 07:38:58;;;;;;;10.38;4.53;;;33.90;57.10;;;;;;5073960;28;20027;-60
2022/08/12 07:41:27;;;;;;;10.32;4.32;;;33.90;57.10;;;;;;5074845;28;20029;-60
2022/08/12 07:44:07;;;;;;;10.88;4.72;;;34.40;56.00;;;;;;5073291;28;20071;-60
2022/08/12 07:46:40;;;;;;;12.73;4.28;;;34.30;55.50;;;;;;5074464;28;20428;-60
2022/08/12 07:49:11;;;;;;;12.38;4.13;;;34.00;56.60;;;;;;5073773;28;20046;-60
2022/08/12 07:51:37;;;;;;;14.82;4.65;;;33.80;56.70;;;;;;5074429;28;20044;-61
2022/08/12 07:54:08;;;;;;;13.15;4.95;;;33.80;56.10;;;;;;5074737;28;20024;-60
2022/08/12 07:56:36;;;;;;;9.05;4.50;;;33.80;56.90;;;;;;5074394;28;20035;-60
2022/08/12 07:59:03;;;;;;;13.93;3.72;;;34.10;55.90;;;;;;5074648;28;20039;-61
2022/08/12 08:01:29;;;;;;;13.05;4.50;;;34.70;54.80;;;;;;5073034;28;20036;-60
2022/08/12 08:06:43;;;;;;;10.90;4.10;;;35.50;54.10;;;;;;5074685;28;20187;-60
2022/08/12 08:09:12;;;;;;;11.30;4.03;;;35.30;53.50;;;;;;5074630;28;20037;-62
2022/08/12 08:14:30;;;;;;;9.32;3.80;;;35.60;53.70;;;;;;5073698;28;20182;-62
2022/08/12 08:16:57;;;;;;;11.48;3.92;;;35.60;53.70;;;;;;5073752;28;20048;-62
2022/08/12 08:19:24;;;;;;;14.32;3.53;;;35.70;53.20;;;;;;5073963;28;20040;-62
2022/08/12 08:21:54;;;;;;;9.88;3.60;;;35.70;52.80;;;;;;5074238;28;20059;-62
2022/08/12 08:24:23;;;;;;;13.27;3.95;;;36.20;52.40;;;;;;5073566;28;20036;-62
2022/08/12 08:26:52;;;;;;;10.30;3.65;;;37.10;52.30;;;;;;5073778;28;20029;-62
2022/08/12 08:29:20;;;;;;;10.30;3.40;;;37.30;51.30;;;;;;5073918;28;20028;-61
2022/08/12 08:31:51;;;;;;;10.13;3.42;;;36.90;50.80;;;;;;5073884;28;20087;-62
2022/08/12 08:34:18;;;;;;;10.38;3.92;;;36.90;50.70;;;;;;5073947;28;20037;-62
2022/08/12 08:36:44;;;;;;;6.65;3.13;;;36.70;51.30;;;;;;5074104;28;20040;-62
2022/08/12 08:39:12;;;;;;;9.95;3.50;;;36.30;51.70;;;;;;5073819;28;20086;-62
2022/08/12 08:44:23;;;;;;;11.10;3.30;;;35.90;52.50;;;;;;5073641;28;20047;-62
2022/08/12 08:46:49;;;;;;;8.82;3.63;;;36.50;51.70;;;;;;5073169;28;20028;-62
2022/08/12 08:49:16;;;;;;;6.68;3.38;;;37.40;50.30;;;;;;5073189;28;20383;-60
2022/08/12 08:51:43;;;;;;;10.95;3.53;;;37.30;50.40;;;;;;5073536;28;20094;-60
2022/08/12 08:54:11;;;;;;;13.63;3.40;;;37.10;51.10;;;;;;5073417;28;20416;-60
2022/08/12 08:56:48;;;;;;;8.43;3.15;;;37.60;50.20;;;;;;5072002;28;20035;-60
2022/08/12 08:59:16;;;;;;;10.48;3.30;;;37.90;49.20;;;;;;5073444;28;20509;-60
2022/08/12 09:01:42;;;;;;;10.48;3.20;;;38.30;49.20;;;;;;5073301;28;20028;-60
2022/08/12 09:04:09;;;;;;;15.02;3.33;;;38.00;49.60;;;;;;5072996;28;20108;-61
2022/08/12 09:06:35;;;;;;;10.68;3.20;;;38.20;49.10;;;;;;5073403;28;20024;-61
2022/08/12 09:09:04;;;;;;;5.03;3.22;;;39.00;47.10;;;;;;5073214;28;20032;-61
2022/08/12 09:14:14;;;;;;;9.73;3.55;;;37.50;48.40;;;;;;5073324;28;20448;-61
2022/08/12 09:16:39;;;;;;;11.07;2.95;;;37.40;48.90;;;;;;5073114;28;20020;-61
2022/08/12 09:19:12;;;;;;;9.82;2.85;;;37.20;48.00;;;;;;5073038;28;20063;-61
2022/08/12 09:21:38;;;;;;;7.70;2.90;;;37.10;47.40;;;;;;5072959;28;20024;-61
2022/08/12 09:24:06;;;;;;;7.70;2.85;;;37.10;48.10;;;;;;5072518;28;20041;-62
2022/08/12 09:26:33;;;;;;;6.30;2.70;;;37.30;48.00;;;;;;5072541;28;20050;-61
2022/08/12 09:28:59;;;;;;;11.05;3.33;;;37.70;47.50;;;;;;5073312;28;20036;-61
2022/08/12 09:31:26;;;;;;;10.73;2.85;;;37.50;47.80;;;;;;5072700;28;20025;-61
2022/08/12 09:33:52;;;;;;;7.82;3.20;;;37.70;47.30;;;;;;5071287;28;20025;-62
2022/08/12 09:36:17;;;;;;;7.57;2.60;;;37.50;46.80;;;;;;5072519;28;20378;-61
2022/08/12 09:38:44;;;;;;;8.65;3.00;;;37.40;47.30;;;;;;5071956;28;20032;-61
2022/08/12 09:41:10;;;;;;;11.23;3.20;;;37.70;47.30;;;;;;5073342;28;20021;-61
2022/08/12 09:46:21;;;;;;;5.75;2.58;;;37.90;46.70;;;;;;5072265;28;20040;-62
2022/08/12 09:48:46;;;;;;;8.23;2.58;;;37.60;46.50;;;;;;5071322;28;20603;-62
2022/08/12 09:51:12;;;;;;;11.10;2.90;;;37.60;46.80;;;;;;5072749;28;20107;-59
2022/08/12 09:53:38;;;;;;;7.80;2.80;;;37.70;46.30;;;;;;5071037;28;20024;-62
2022/08/12 09:56:06;;;;;;;6.47;2.83;;;37.50;45.80;;;;;;5072038;28;20039;-62
2022/08/12 09:58:33;;;;;;;6.88;2.53;;;37.50;46.10;;;;;;5072541;28;20446;-62
2022/08/12 10:01:03;;;;;;;6.60;2.60;;;37.10;46.70;;;;;;5071587;28;20056;-62
2022/08/12 10:03:33;;;;;;;5.53;2.53;;;37.20;46.50;;;;;;5070793;28;20035;-62
2022/08/12 10:06:00;;;;;;;5.78;2.53;;;37.80;45.80;;;;;;5071746;28;20035;-62
2022/08/12 10:08:29;;;;;;;7.68;2.70;;;38.00;45.50;;;;;;5072044;28;20457;-62
2022/08/12 10:13:43;;;;;;;4.22;2.30;;;37.90;44.80;;;;;;5071880;28;20048;-61
2022/08/12 10:16:12;;;;;;;5.88;2.40;;;37.50;44.90;;;;;;5071933;28;20028;-62
2022/08/12 10:18:44;;;;;;;27.95;3.72;;;37.20;45.50;;;;;;5071902;28;20117;-62
2022/08/12 10:21:13;;;;;;;8.05;2.28;;;37.40;45.30;;;;;;5071543;28;20020;-62
2022/08/12 10:23:40;;;;;;;6.30;2.30;;;37.70;44.70;;;;;;5071419;28;20944;-62
2022/08/12 10:31:37;;;;;;;9.32;2.38;;;37.10;45.00;;;;;;5071325;28;20031;-62
2022/08/12 10:34:04;;;;;;;12.55;2.50;;;37.80;44.40;;;;;;5071707;28;20024;-62
2022/08/12 10:36:31;;;;;;;9.63;2.15;;;38.00;43.90;;;;;;5071177;28;20028;-62
2022/08/12 10:38:57;;;;;;;5.15;2.33;;;38.60;43.60;;;;;;5070311;28;20032;-62
2022/08/12 10:44:11;;;;;;;6.35;2.22;;;38.30;41.80;;;;;;5071210;28;20044;-62
2022/08/12 10:46:37;;;;;;;4.30;2.00;;;38.10;42.40;;;;;;5071422;28;20497;-62
2022/08/12 10:49:03;;;;;;;10.10;2.30;;;38.10;42.20;;;;;;5071462;28;20040;-63
2022/08/12 10:51:30;;;;;;;7.07;2.30;;;38.20;42.20;;;;;;5071071;28;20029;-62
2022/08/12 10:53:56;;;;;;;6.18;2.33;;;38.20;42.30;;;;;;5071225;28;20103;-62
2022/08/12 10:56:22;;;;;;;5.13;2.10;;;38.40;42.70;;;;;;5071303;28;20556;-62
2022/08/12 10:58:48;;;;;;;3.75;2.10;;;38.50;41.90;;;;;;5071207;28;20024;-61
2022/08/12 11:01:15;;;;;;;6.30;2.10;;;38.60;41.50;;;;;;5070964;28;20060;-61
2022/08/12 11:03:41;;;;;;;18.50;2.53;;;38.40;41.60;;;;;;5071152;28;20040;-62
2022/08/12 11:06:08;;;;;;;5.10;2.30;;;38.30;41.20;;;;;;5069479;28;20032;-62
2022/08/12 11:08:39;;;;;;;8.23;2.30;;;37.90;41.60;;;;;;5071361;28;20040;-62
2022/08/12 11:11:08;;;;;;;5.50;2.13;;;37.80;41.90;;;;;;5071072;28;20032;-62
2022/08/12 11:13:35;;;;;;;6.63;2.10;;;38.30;41.50;;;;;;5070618;28;20075;-62
2022/08/12 11:16:01;;;;;;;26.40;3.47;;;38.70;41.40;;;;;;5069524;28;20028;-62
2022/08/12 11:18:27;;;;;;;4.82;2.03;;;38.30;40.70;;;;;;5071265;28;20541;-62
2022/08/12 11:20:53;;;;;;;4.97;2.30;;;38.30;41.50;;;;;;5070742;28;20029;-62
2022/08/12 11:23:21;;;;;;;6.75;2.15;;;37.70;41.50;;;;;;5071061;28;20473;-62
2022/08/12 11:25:47;;;;;;;4.55;2.25;;;38.30;42.00;;;;;;5070864;28;20129;-63
2022/08/12 11:28:14;;;;;;;4.35;1.90;;;38.50;41.40;;;;;;5071607;28;20056;-62
2022/08/12 11:30:40;;;;;;;10.30;2.33;;;38.90;41.40;;;;;;5070860;28;20035;-63
2022/08/12 11:33:07;;;;;;;7.22;2.15;;;39.20;40.70;;;;;;5069741;28;20024;-62
2022/08/12 11:35:32;;;;;;;8.80;2.60;;;39.30;40.90;;;;;;5071315;28;20475;-64
2022/08/12 11:38:02;;;;;;;12.32;3.05;;;39.70;40.40;;;;;;5070986;28;20180;-62
2022/08/12 11:40:28;;;;;;;6.20;1.98;;;39.40;40.60;;;;;;5070637;28;20027;-62
2022/08/12 11:42:55;;;;;;;28.63;4.45;;;39.00;40.40;;;;;;5070688;28;20033;-62
2022/08/12 11:45:20;;;;;;;64.15;6.60;;;38.80;40.70;;;;;;5070378;28;20025;-63
2022/08/12 11:47:47;;;;;;;9.05;2.40;;;38.20;40.70;;;;;;5071014;28;20047;-62
2022/08/12 11:50:13;;;;;;;10.07;2.20;;;38.00;41.40;;;;;;5069275;28;20047;-62
2022/08/12 11:52:38;;;;;;;5.75;2.10;;;38.00;41.80;;;;;;5070655;28;20111;-62
2022/08/12 11:55:04;;;;;;;12.70;2.40;;;38.60;41.30;;;;;;5070845;28;20338;-62
2022/08/12 11:57:49;;;;;;;7.38;2.47;;;38.10;41.10;;;;;;5070499;28;20039;-62
2022/08/12 12:00:16;;;;;;;8.43;2.30;;;38.00;41.50;;;;;;5068860;28;20041;-62
2022/08/12 12:02:41;;;;;;;5.13;1.92;;;38.60;41.40;;;;;;5070301;28;20548;-62
2022/08/12 12:05:07;;;;;;;5.38;2.03;;;38.50;41.10;;;;;;5070363;28;20029;-62
2022/08/12 12:07:37;;;;;;;5.70;2.20;;;39.20;40.40;;;;;;5070897;28;20039;-62
2022/08/12 12:10:03;;;;;;;6.30;2.05;;;39.40;39.80;;;;;;5070551;28;20024;-62
2022/08/12 12:12:29;;;;;;;8.63;2.30;;;39.50;39.10;;;;;;5070126;28;20024;-63
2022/08/12 12:14:55;;;;;;;4.07;2.00;;;39.00;38.60;;;;;;5070361;28;20074;-63
2022/08/12 12:17:22;;;;;;;6.53;2.05;;;38.60;38.70;;;;;;5070143;28;20031;-63
2022/08/12 12:19:47;;;;;;;4.90;2.10;;;38.90;39.40;;;;;;5070870;28;20021;-62
2022/08/12 12:22:13;;;;;;;6.43;2.15;;;39.00;39.40;;;;;;5070144;28;20522;-62
2022/08/12 12:24:42;;;;;;;6.07;2.00;;;39.40;39.20;;;;;;5071149;28;20028;-62
2022/08/12 12:27:07;;;;;;;4.53;1.90;;;40.00;38.10;;;;;;5073675;28;20024;-63
2022/08/12 12:29:36;;;;;;;8.40;2.05;;;39.70;37.40;;;;;;5073916;28;20242;-63
2022/08/12 12:32:08;;;;;;;5.63;1.65;;;39.70;37.30;;;;;;5073465;28;20044;-62
2022/08/12 12:34:33;;;;;;;4.28;1.70;;;39.90;36.90;;;;;;5073757;28;20021;-62
2022/08/12 12:36:59;;;;;;;2.90;1.55;;;39.70;36.90;;;;;;5073633;28;20016;-62
2022/08/12 12:39:25;;;;;;;3.08;1.85;;;39.00;37.90;;;;;;5074107;28;20095;-62
2022/08/12 12:41:50;;;;;;;7.40;2.00;;;38.60;37.90;;;;;;5072593;28;20101;-62
2022/08/12 12:44:16;;;;;;;7.85;1.80;;;38.70;38.40;;;;;;5073410;28;20119;-63
2022/08/12 12:46:42;;;;;;;19.50;2.80;;;39.10;38.00;;;;;;5072186;28;20025;-62
2022/08/12 12:49:07;;;;;;;5.38;2.15;;;38.90;37.70;;;;;;5073736;28;20089;-62
2022/08/12 12:51:33;;;;;;;5.00;1.70;;;38.50;38.30;;;;;;5073365;28;20033;-62
2022/08/12 12:53:58;;;;;;;8.73;2.05;;;38.70;37.90;;;;;;5073425;28;20032;-62
2022/08/12 12:56:24;;;;;;;5.97;2.15;;;39.00;38.00;;;;;;5072074;28;20020;-62
2022/08/12 12:58:51;;;;;;;3.40;1.88;;;39.40;37.50;;;;;;5073826;28;20029;-63
2022/08/12 13:01:21;;;;;;;7.38;2.30;;;39.10;37.60;;;;;;5073873;28;20094;-62
2022/08/12 13:03:47;;;;;;;5.13;1.75;;;39.40;37.50;;;;;;5073153;28;20111;-63
2022/08/12 13:06:13;;;;;;;6.85;2.00;;;38.90;37.20;;;;;;5073620;28;20025;-62
2022/08/12 13:08:39;;;;;;;4.32;1.80;;;38.10;38.10;;;;;;5073532;28;20032;-62
2022/08/12 13:11:06;;;;;;;6.00;1.88;;;38.50;38.30;;;;;;5071827;28;20115;-63
2022/08/12 13:13:35;;;;;;;4.28;1.88;;;39.20;38.10;;;;;;5073045;28;20036;-62
2022/08/12 13:16:01;;;;;;;5.40;2.17;;;38.90;37.80;;;;;;5073147;28;20028;-63
2022/08/12 13:18:35;;;;;;;6.25;2.10;;;38.60;38.30;;;;;;5073135;28;20040;-63
2022/08/12 13:21:05;;;;;;;3.17;1.73;;;38.70;37.90;;;;;;5071581;28;20025;-63
2022/08/12 13:23:31;;;;;;;6.05;2.00;;;39.00;38.10;;;;;;5071660;28;20029;-63
2022/08/12 13:26:00;;;;;;;4.03;1.75;;;39.50;37.60;;;;;;5072633;28;20032;-63
2022/08/12 13:28:27;;;;;;;4.03;2.00;;;39.90;36.80;;;;;;5073084;28;20021;-63
2022/08/12 13:30:58;;;;;;;6.72;1.80;;;39.80;37.00;;;;;;5072829;28;20027;-62
2022/08/12 13:33:28;;;;;;;4.53;1.80;;;39.90;36.70;;;;;;5073053;28;20033;-62
2022/08/12 13:35:59;;;;;;;5.68;1.70;;;39.80;36.90;;;;;;5072152;28;20562;-62
2022/08/12 13:38:34;;;;;;;;;;;40.00;37.60;;;;;;5073337;28;20021;-62
2022/08/12 13:41:00;;;;;;;5.05;1.75;;;40.20;36.60;;;;;;5072470;28;19908;-62
2022/08/12 13:43:25;;;;;;;3.22;1.50;;;39.40;37.10;;;;;;5072440;28;20028;-62
2022/08/12 13:45:51;;;;;;;7.65;2.03;;;39.30;37.20;;;;;;5070844;28;20027;-62
2022/08/12 13:48:16;;;;;;;6.07;2.00;;;39.50;36.80;;;;;;5072708;28;20378;-62
2022/08/12 13:50:42;;;;;;;7.13;1.70;;;39.40;36.80;;;;;;5072403;28;20027;-62
2022/08/12 13:53:08;;;;;;;2.25;1.50;;;39.50;35.60;;;;;;5070931;28;20443;-60
2022/08/12 13:55:35;;;;;;;4.97;1.92;;;39.50;36.00;;;;;;5072303;28;20439;-60
2022/08/12 13:58:04;;;;;;;3.88;1.80;;;40.20;36.20;;;;;;5072393;28;20039;-60
2022/08/12 14:00:31;;;;;;;3.55;1.52;;;40.40;34.90;;;;;;5071757;28;20075;-61
2022/08/12 14:02:56;;;;;;;2.38;1.60;;;40.60;34.10;;;;;;5072148;28;20732;-61
2022/08/12 14:05:22;;;;;;;2.45;1.60;;;40.00;35.20;;;;;;5072159;28;20025;-61
2022/08/12 14:07:56;;;;;;;8.23;2.05;;;39.40;35.10;;;;;;5070974;28;20082;-61
2022/08/12 14:10:42;;;;;;;4.60;1.90;;;39.40;34.90;;;;;;5071836;28;20020;-60
2022/08/12 14:13:38;;;;;;;2.47;1.85;;;39.00;35.90;;;;;;5071618;28;20111;-61
2022/08/12 14:16:12;;;;;;;3.65;2.08;;;37.90;37.10;;;;;;5070647;28;20035;-60
2022/08/12 14:18:38;;;;;;;7.53;1.67;;;38.60;37.60;;;;;;5070847;28;20028;-60
2022/08/12 14:21:10;;;;;;;5.72;2.03;;;38.90;37.20;;;;;;5071875;28;20440;-62
2022/08/12 14:23:41;;;;;;;3.05;1.58;;;39.00;37.20;;;;;;5071642;28;20539;-61
2022/08/12 14:26:10;;;;;;;4.53;1.55;;;39.20;36.90;;;;;;5071831;28;20043;-61
2022/08/12 14:28:36;;;;;;;4.95;1.85;;;39.40;36.30;;;;;;5071848;28;20037;-60
2022/08/12 14:31:09;;;;;;;3.45;1.48;;;39.60;35.60;;;;;;5071169;28;20025;-61
2022/08/12 14:33:35;;;;;;;4.63;1.60;;;39.80;35.90;;;;;;5071317;28;20025;-63
2022/08/12 14:36:07;;;;;;;4.22;1.80;;;40.30;35.80;;;;;;5071136;28;20025;-63
2022/08/12 14:38:38;;;;;;;3.03;1.65;;;39.70;35.60;;;;;;5070194;28;20548;-63
2022/08/12 14:41:05;;;;;;;7.88;1.65;;;39.40;35.50;;;;;;5069837;28;20130;-63
2022/08/12 14:43:36;;;;;;;4.47;2.10;;;39.50;35.70;;;;;;5071133;28;20500;-63
2022/08/12 14:46:03;;;;;;;3.88;1.92;;;39.80;35.30;;;;;;5071329;28;20102;-63
2022/08/12 14:48:29;;;;;;;3.78;1.85;;;39.60;35.60;;;;;;5070633;28;20115;-63